Time;durP1;ratioP1;P1;durP2;ratioP2;P2;SDS_P1;SDS_P2;PMS_P1;PMS_P2;Temp;Humidity;BMP_temperature;BMP_pressure;BME280_temperature;BME280_humidity;BME280_pressure;Samples;Min_cycle;Max_cycle;Signal;HPM_P1;HPM_P2
2024/04/22 00:01:07;;;;;;;3.40;3.10;;;2.90;99.90;;;;;;5566510;25;20342;-62
2024/04/22 00:03:33;;;;;;;5.40;3.17;;;2.90;99.90;;;;;;5566873;25;20293;-60
2024/04/22 00:06:01;;;;;;;4.47;3.43;;;2.90;99.90;;;;;;5566862;25;20226;-61
2024/04/22 00:08:27;;;;;;;4.05;3.60;;;2.90;99.90;;;;;;5567089;25;20285;-61
2024/04/22 00:11:06;;;;;;;4.33;3.20;;;2.90;99.90;;;;;;5566630;25;20210;-61
2024/04/22 00:13:31;;;;;;;6.32;3.45;;;2.90;99.90;;;;;;5568002;25;20577;-61
2024/04/22 00:16:02;;;;;;;3.40;2.73;;;2.90;99.90;;;;;;5566328;25;20215;-62
2024/04/22 00:18:28;;;;;;;4.22;3.33;;;2.90;99.90;;;;;;5566654;25;20509;-62
2024/04/22 00:20:57;;;;;;;4.03;3.60;;;2.90;99.90;;;;;;5566763;25;20303;-61
2024/04/22 00:23:22;;;;;;;3.38;3.08;;;2.90;99.90;;;;;;5568006;25;20265;-60
2024/04/22 00:25:51;;;;;;;2.83;2.60;;;2.90;99.90;;;;;;5566786;25;20696;-61
2024/04/22 00:28:17;;;;;;;4.75;3.30;;;2.90;99.90;;;;;;5567346;25;20255;-62
2024/04/22 00:30:45;;;;;;;4.00;3.53;;;3.00;99.90;;;;;;5570886;25;20289;-61
2024/04/22 00:33:13;;;;;;;3.47;2.88;;;3.00;99.90;;;;;;5570063;25;20320;-61
2024/04/22 00:35:42;;;;;;;4.05;3.25;;;3.00;99.90;;;;;;5569256;25;20241;-61
2024/04/22 00:38:08;;;;;;;3.60;3.00;;;3.10;99.90;;;;;;5569809;25;20266;-61
2024/04/22 00:40:36;;;;;;;4.80;3.63;;;3.10;99.90;;;;;;5569182;25;20549;-62
2024/04/22 00:43:03;;;;;;;3.63;3.25;;;3.10;99.90;;;;;;5569269;25;20261;-61
2024/04/22 00:45:32;;;;;;;4.47;3.28;;;3.10;99.90;;;;;;5568374;25;20511;-61
2024/04/22 00:47:58;;;;;;;3.65;3.10;;;3.10;99.90;;;;;;5567857;25;20233;-61
2024/04/22 00:50:30;;;;;;;4.10;3.27;;;3.20;99.90;;;;;;5568676;25;20314;-61
2024/04/22 00:52:57;;;;;;;3.40;3.10;;;3.10;99.90;;;;;;5569042;25;20568;-61
2024/04/22 00:55:26;;;;;;;3.90;3.03;;;3.10;99.90;;;;;;5569246;25;20709;-61
2024/04/22 00:57:56;;;;;;;3.33;3.00;;;3.10;99.90;;;;;;5567819;25;20257;-62
2024/04/22 01:00:25;;;;;;;3.92;3.47;;;3.10;99.90;;;;;;5568799;25;20217;-62
2024/04/22 01:02:52;;;;;;;6.18;3.13;;;3.10;99.90;;;;;;5568829;25;20249;-62
2024/04/22 01:05:21;;;;;;;4.80;3.20;;;3.10;99.90;;;;;;5568656;25;20215;-62
2024/04/22 01:07:49;;;;;;;3.90;3.30;;;3.10;99.90;;;;;;5568967;25;20227;-62
2024/04/22 01:10:18;;;;;;;3.75;3.15;;;3.10;99.90;;;;;;5568934;25;20605;-61
2024/04/22 01:12:44;;;;;;;3.28;2.92;;;3.10;99.90;;;;;;5568817;25;20243;-62
2024/04/22 01:15:12;;;;;;;5.07;3.13;;;3.00;99.90;;;;;;5569308;25;20816;-61
2024/04/22 01:17:40;;;;;;;4.55;3.22;;;3.00;99.90;;;;;;5569343;25;20309;-62
2024/04/22 01:20:10;;;;;;;4.10;3.70;;;3.00;99.90;;;;;;5568815;25;20258;-61
2024/04/22 01:22:38;;;;;;;4.93;3.28;;;2.90;99.90;;;;;;5568100;25;20334;-60
2024/04/22 01:25:08;;;;;;;4.60;3.20;;;2.90;99.90;;;;;;5567622;25;20213;-61
2024/04/22 01:27:35;;;;;;;5.85;3.88;;;2.90;99.90;;;;;;5568903;25;20309;-61
2024/04/22 01:30:05;;;;;;;5.13;3.90;;;2.90;99.90;;;;;;5568273;25;20326;-61
2024/04/22 01:32:31;;;;;;;5.00;2.88;;;2.90;99.90;;;;;;5568503;25;20252;-61
2024/04/22 01:35:01;;;;;;;5.70;3.78;;;2.90;99.90;;;;;;5569126;25;20269;-61
2024/04/22 01:37:27;;;;;;;4.95;3.35;;;2.90;99.90;;;;;;5575606;25;20206;-62
2024/04/22 01:39:58;;;;;;;3.95;3.33;;;2.90;99.90;;;;;;5570834;25;20207;-62
2024/04/22 01:42:24;;;;;;;3.67;2.90;;;2.90;99.90;;;;;;5570589;25;20258;-61
2024/04/22 01:44:53;;;;;;;6.63;3.92;;;2.90;99.90;;;;;;5570368;25;20256;-62
2024/04/22 01:47:19;;;;;;;4.57;3.35;;;3.00;99.90;;;;;;5569244;25;20223;-61
2024/04/22 01:49:47;;;;;;;3.30;3.00;;;3.00;99.90;;;;;;5568819;25;20297;-62
2024/04/22 01:52:13;;;;;;;4.65;3.08;;;3.00;99.90;;;;;;5568628;25;20661;-61
2024/04/22 01:54:42;;;;;;;4.50;3.50;;;3.00;99.90;;;;;;5568107;25;20219;-62
2024/04/22 01:57:10;;;;;;;6.20;3.60;;;2.90;99.90;;;;;;5567436;25;20450;-61
2024/04/22 01:59:39;;;;;;;3.58;3.08;;;2.90;99.90;;;;;;5567764;25;20215;-61
2024/04/22 02:02:05;;;;;;;3.80;2.80;;;2.90;99.90;;;;;;5547949;21;20271;-62
2024/04/22 02:04:33;;;;;;;3.50;3.20;;;2.90;99.90;;;;;;5496653;26;20650;-64
2024/04/22 02:06:59;;;;;;;4.22;3.00;;;2.80;99.90;;;;;;5497739;26;21104;-63
2024/04/22 02:09:27;;;;;;;4.00;3.07;;;2.80;99.90;;;;;;5498430;26;20224;-64
2024/04/22 02:11:53;;;;;;;4.15;3.22;;;2.80;99.90;;;;;;5498301;26;20572;-63
2024/04/22 02:14:24;;;;;;;7.70;3.53;;;2.70;99.90;;;;;;5497367;26;20619;-64
2024/04/22 02:16:50;;;;;;;3.38;3.08;;;2.70;99.90;;;;;;5492233;26;21049;-62
2024/04/22 02:19:18;;;;;;;3.67;2.80;;;2.60;99.90;;;;;;5492696;26;20290;-63
2024/04/22 02:21:44;;;;;;;4.85;3.00;;;2.60;99.90;;;;;;5491932;26;20236;-63
2024/04/22 02:24:13;;;;;;;4.17;3.23;;;2.60;99.90;;;;;;5491632;26;20220;-63
2024/04/22 02:26:39;;;;;;;4.35;3.40;;;2.50;99.90;;;;;;5491898;26;20445;-63
2024/04/22 02:29:07;;;;;;;3.30;2.47;;;2.50;99.90;;;;;;5496224;26;20311;-63
2024/04/22 02:31:36;;;;;;;3.63;3.15;;;2.50;99.90;;;;;;5493949;26;20457;-62
2024/04/22 02:34:05;;;;;;;3.65;3.30;;;2.40;99.90;;;;;;5491675;26;20710;-63
2024/04/22 02:36:31;;;;;;;3.50;2.38;;;2.40;99.90;;;;;;5491506;26;20232;-62
2024/04/22 02:38:59;;;;;;;5.53;3.10;;;2.30;99.90;;;;;;5491569;26;20316;-63
2024/04/22 02:41:25;;;;;;;4.50;3.28;;;2.30;99.90;;;;;;5491086;26;20316;-63
2024/04/22 02:43:53;;;;;;;3.33;3.03;;;2.30;99.90;;;;;;5491168;26;20220;-63
2024/04/22 02:46:19;;;;;;;3.40;2.95;;;2.30;99.90;;;;;;5490858;26;20509;-63
2024/04/22 02:48:50;;;;;;;6.10;3.00;;;2.20;99.90;;;;;;5491018;26;20220;-62
2024/04/22 02:51:16;;;;;;;5.10;3.13;;;2.20;99.90;;;;;;5490956;26;20550;-63
2024/04/22 02:53:44;;;;;;;2.90;2.30;;;2.20;99.90;;;;;;5489695;26;20264;-63
2024/04/22 02:56:10;;;;;;;4.18;3.00;;;2.20;99.90;;;;;;5501499;26;20256;-63
2024/04/22 02:58:39;;;;;;;6.93;3.37;;;2.10;99.90;;;;;;5493768;26;20317;-62
2024/04/22 03:01:05;;;;;;;5.18;3.10;;;2.10;99.90;;;;;;5491300;26;20280;-63
2024/04/22 03:03:34;;;;;;;3.38;2.30;;;2.10;99.90;;;;;;5491409;26;20220;-62
2024/04/22 03:06:03;;;;;;;3.20;2.83;;;2.00;99.90;;;;;;5490935;26;20224;-63
2024/04/22 03:08:31;;;;;;;3.25;2.40;;;2.00;99.90;;;;;;5490596;26;20251;-63
2024/04/22 03:10:57;;;;;;;6.20;2.88;;;2.00;99.90;;;;;;5491344;26;20726;-64
2024/04/22 03:13:26;;;;;;;3.00;2.65;;;2.00;99.90;;;;;;5492181;26;20215;-63
2024/04/22 03:15:52;;;;;;;3.08;2.78;;;2.00;99.90;;;;;;5491673;26;20217;-64
2024/04/22 03:18:20;;;;;;;6.63;3.00;;;1.90;99.90;;;;;;5491583;26;20220;-62
2024/04/22 03:20:46;;;;;;;6.40;2.60;;;1.90;99.90;;;;;;5490308;26;20497;-62
2024/04/22 03:23:17;;;;;;;3.80;2.20;;;1.90;99.90;;;;;;5490278;26;20547;-63
2024/04/22 03:25:43;;;;;;;5.60;2.55;;;1.80;99.90;;;;;;5490256;26;20211;-63
2024/04/22 03:28:11;;;;;;;3.43;2.40;;;1.80;99.90;;;;;;5490154;26;20307;-64
2024/04/22 03:30:37;;;;;;;4.25;2.50;;;1.80;99.90;;;;;;5490302;26;20261;-62
2024/04/22 03:33:06;;;;;;;3.43;2.60;;;1.80;99.90;;;;;;5490077;26;20706;-63
2024/04/22 03:35:32;;;;;;;5.10;2.70;;;1.80;99.90;;;;;;5489842;26;20590;-64
2024/04/22 03:38:01;;;;;;;3.42;2.72;;;1.70;99.90;;;;;;5489884;26;20250;-63
2024/04/22 03:40:32;;;;;;;3.67;3.10;;;1.70;99.90;;;;;;5489851;26;20307;-63
2024/04/22 03:43:00;;;;;;;5.70;2.72;;;1.70;99.90;;;;;;5489931;26;20277;-63
2024/04/22 03:45:26;;;;;;;2.67;2.40;;;1.70;99.90;;;;;;5489797;26;20267;-63
2024/04/22 03:50:40;;;;;;;3.45;2.30;;;1.60;99.90;;;;;;5492634;26;20727;-62
2024/04/22 03:53:09;;;;;;;3.42;2.63;;;1.60;99.90;;;;;;5489530;26;20221;-62
2024/04/22 03:55:41;;;;;;;4.82;3.80;;;1.50;99.90;;;;;;5489423;26;20212;-63
2024/04/22 03:58:07;;;;;;;4.57;2.75;;;1.50;99.90;;;;;;5490026;26;20834;-63
2024/04/22 04:00:35;;;;;;;3.50;2.90;;;1.50;99.90;;;;;;5489590;26;20225;-63
2024/04/22 04:03:01;;;;;;;4.20;3.08;;;1.60;99.90;;;;;;5489265;26;20227;-63
2024/04/22 04:05:29;;;;;;;4.53;2.83;;;1.50;99.90;;;;;;5489732;26;20580;-62
2024/04/22 04:07:55;;;;;;;5.68;2.90;;;1.40;99.90;;;;;;5489935;26;20255;-62
2024/04/22 04:13:36;;;;;;;4.17;2.90;;;1.40;99.90;;;;;;5573127;25;1429924;-62
2024/04/22 04:16:02;;;;;;;4.25;3.15;;;1.30;99.90;;;;;;5583300;25;20554;-63
2024/04/22 04:18:30;;;;;;;4.27;3.03;;;1.30;99.90;;;;;;5583298;25;20219;-65
2024/04/22 04:20:56;;;;;;;6.70;3.20;;;1.30;99.90;;;;;;5579763;25;20928;-63
2024/04/22 04:23:25;;;;;;;4.90;3.00;;;1.30;99.90;;;;;;5546117;25;20214;-62
2024/04/22 04:25:50;;;;;;;7.78;2.67;;;1.30;99.90;;;;;;5546175;25;20218;-63
2024/04/22 04:28:19;;;;;;;5.23;3.10;;;1.30;99.90;;;;;;5546019;25;20303;-62
2024/04/22 04:30:55;;;;;;;5.53;3.00;;;1.30;99.90;;;;;;5546029;25;20782;-64
2024/04/22 04:33:24;;;;;;;5.03;2.55;;;1.30;99.90;;;;;;5546229;25;20320;-63
2024/04/22 04:35:57;;;;;;;4.18;2.85;;;1.30;99.90;;;;;;5545638;25;20681;-64
2024/04/22 04:38:25;;;;;;;3.97;3.10;;;1.30;99.90;;;;;;5547497;25;20662;-62
2024/04/22 04:40:51;;;;;;;7.22;3.33;;;1.40;99.90;;;;;;5546960;25;20314;-63
2024/04/22 04:43:20;;;;;;;3.90;2.30;;;1.40;99.90;;;;;;5545966;25;20736;-62
2024/04/22 04:45:46;;;;;;;3.80;2.95;;;1.40;99.90;;;;;;5545551;25;20456;-62
2024/04/22 04:48:17;;;;;;;3.30;2.73;;;1.40;99.90;;;;;;5545679;25;20224;-62
2024/04/22 04:50:43;;;;;;;3.40;2.70;;;1.50;99.90;;;;;;5548201;25;20555;-63
2024/04/22 04:53:13;;;;;;;3.22;2.85;;;1.50;99.90;;;;;;5547958;25;20219;-63
2024/04/22 04:55:39;;;;;;;2.60;2.22;;;1.50;99.90;;;;;;5544918;25;20256;-63
2024/04/22 04:58:08;;;;;;;2.67;2.47;;;1.60;99.90;;;;;;5545114;25;20379;-63
2024/04/22 05:00:34;;;;;;;6.70;3.10;;;1.70;99.90;;;;;;5543856;25;20495;-63
2024/04/22 05:03:02;;;;;;;3.10;2.80;;;1.70;99.90;;;;;;5545303;25;20228;-63
2024/04/22 05:05:31;;;;;;;4.10;2.72;;;1.80;99.90;;;;;;5546420;25;20223;-65
2024/04/22 05:08:00;;;;;;;2.78;2.53;;;1.80;99.90;;;;;;5546688;25;20306;-63
2024/04/22 05:10:26;;;;;;;3.70;2.65;;;1.90;99.90;;;;;;5545435;25;20226;-63
2024/04/22 05:12:54;;;;;;;2.27;2.07;;;2.00;99.90;;;;;;5545201;25;20321;-62
2024/04/22 05:15:20;;;;;;;5.93;2.60;;;2.00;99.90;;;;;;5545261;25;20473;-63
2024/04/22 05:17:48;;;;;;;2.97;2.30;;;2.10;99.90;;;;;;5546022;25;20223;-63
2024/04/22 05:20:14;;;;;;;3.28;2.63;;;2.20;99.90;;;;;;5545371;25;20502;-62
2024/04/22 05:22:46;;;;;;;2.97;2.30;;;2.20;99.90;;;;;;5544924;25;20259;-62
2024/04/22 05:25:11;;;;;;;5.20;2.10;;;2.30;99.90;;;;;;5529840;26;21050;-64
2024/04/22 05:27:40;;;;;;;4.97;2.73;;;2.40;99.90;;;;;;5529691;26;20216;-63
2024/04/22 05:30:06;;;;;;;2.45;2.15;;;2.40;99.90;;;;;;5530543;26;20215;-64
2024/04/22 05:32:36;;;;;;;2.75;2.33;;;2.50;99.90;;;;;;5530232;25;20267;-63
2024/04/22 05:37:52;;;;;;;3.20;2.25;;;2.60;99.90;;;;;;5534524;26;20206;-62
2024/04/22 05:40:20;;;;;;;6.05;2.55;;;2.60;99.90;;;;;;5529872;26;20243;-64
2024/04/22 05:42:49;;;;;;;4.47;1.95;;;2.70;99.90;;;;;;5528734;25;20749;-62
2024/04/22 05:45:17;;;;;;;2.80;2.35;;;2.90;99.90;;;;;;5528271;26;20220;-62
2024/04/22 05:47:46;;;;;;;3.25;2.88;;;2.90;99.90;;;;;;5528980;26;20259;-63
2024/04/22 05:50:14;;;;;;;5.43;2.53;;;3.00;99.90;;;;;;5529864;26;20223;-63
2024/04/22 05:52:42;;;;;;;2.72;2.25;;;3.10;99.90;;;;;;5527972;25;20228;-62
2024/04/22 05:55:13;;;;;;;2.55;1.88;;;3.20;99.90;;;;;;5528879;26;20216;-63
2024/04/22 05:57:41;;;;;;;4.10;2.72;;;3.20;99.70;;;;;;5529136;26;20204;-62
2024/04/22 06:00:11;;;;;;;3.40;2.42;;;3.30;99.30;;;;;;5529058;26;20312;-63
2024/04/22 06:02:37;;;;;;;3.15;2.10;;;3.30;98.90;;;;;;5529082;25;20322;-63
2024/04/22 06:05:06;;;;;;;3.40;2.00;;;3.30;98.60;;;;;;5528462;26;20216;-63
2024/04/22 06:07:32;;;;;;;5.45;2.35;;;3.30;98.20;;;;;;5527544;26;20326;-63
2024/04/22 06:10:00;;;;;;;4.40;2.87;;;3.40;98.10;;;;;;5527853;26;20212;-64
2024/04/22 06:12:31;;;;;;;4.93;2.47;;;3.40;97.70;;;;;;5527661;25;20247;-62
2024/04/22 06:14:57;;;;;;;4.68;2.42;;;3.60;97.30;;;;;;5527998;26;20212;-63
2024/04/22 06:17:26;;;;;;;4.13;2.90;;;3.60;96.80;;;;;;5527875;26;20705;-64
2024/04/22 06:19:51;;;;;;;3.05;2.55;;;3.70;96.40;;;;;;5528116;26;20209;-63
2024/04/22 06:22:20;;;;;;;2.83;2.40;;;3.80;96.10;;;;;;5528808;25;20280;-63
2024/04/22 06:24:47;;;;;;;2.65;2.25;;;3.80;95.10;;;;;;5528139;26;20315;-63
2024/04/22 06:27:15;;;;;;;4.00;2.10;;;3.90;94.70;;;;;;5527843;26;20216;-64
2024/04/22 06:29:44;;;;;;;2.40;2.20;;;4.00;94.20;;;;;;5527902;26;20250;-64
2024/04/22 06:32:12;;;;;;;2.88;2.28;;;4.00;93.50;;;;;;5527230;25;20239;-62
2024/04/22 06:34:38;;;;;;;3.70;2.55;;;4.00;93.30;;;;;;5527330;26;20256;-65
2024/04/22 06:37:06;;;;;;;3.07;2.60;;;4.10;92.60;;;;;;5526977;26;20319;-61
2024/04/22 06:39:32;;;;;;;3.85;2.33;;;4.20;92.00;;;;;;5527407;26;20277;-61
2024/04/22 06:42:02;;;;;;;3.30;2.73;;;4.30;91.10;;;;;;5527115;25;20304;-61
2024/04/22 06:44:27;;;;;;;4.15;2.80;;;4.30;90.40;;;;;;5531783;26;20250;-64
2024/04/22 06:46:58;;;;;;;2.83;2.27;;;4.40;90.10;;;;;;5528867;26;20228;-63
2024/04/22 06:49:24;;;;;;;3.90;2.40;;;4.50;89.40;;;;;;5527775;26;20296;-64
2024/04/22 06:51:53;;;;;;;6.50;4.20;;;4.60;88.20;;;;;;5526989;25;20228;-63
2024/04/22 06:54:19;;;;;;;3.13;2.38;;;4.80;87.20;;;;;;5526895;26;20329;-65
2024/04/22 06:56:47;;;;;;;3.73;2.63;;;4.90;85.40;;;;;;5526685;26;20212;-61
2024/04/22 06:59:13;;;;;;;3.72;3.03;;;4.90;83.40;;;;;;5526946;26;20252;-65
2024/04/22 07:01:41;;;;;;;3.87;2.30;;;5.10;82.90;;;;;;5527094;25;20235;-63
2024/04/22 07:04:10;;;;;;;2.90;2.60;;;5.10;81.70;;;;;;5528392;26;20290;-62
2024/04/22 07:06:39;;;;;;;6.00;2.58;;;5.20;80.40;;;;;;5527307;26;20280;-64
2024/04/22 07:09:09;;;;;;;5.45;2.47;;;5.30;78.80;;;;;;5527400;26;20761;-64
2024/04/22 07:11:38;;;;;;;2.95;2.38;;;5.30;77.80;;;;;;5527288;25;20237;-63
2024/04/22 07:14:04;;;;;;;3.47;2.40;;;5.30;76.90;;;;;;5527984;26;20213;-64
2024/04/22 07:16:34;;;;;;;2.58;2.38;;;5.40;76.00;;;;;;5528205;26;20599;-63
2024/04/22 07:18:59;;;;;;;2.13;1.90;;;5.40;74.90;;;;;;5527794;26;20281;-66
2024/04/22 07:21:30;;;;;;;3.50;2.03;;;5.50;74.20;;;;;;5527100;25;20240;-63
2024/04/22 07:23:56;;;;;;;5.40;2.20;;;5.60;73.00;;;;;;5527906;26;20449;-62
2024/04/22 07:26:25;;;;;;;4.70;2.50;;;5.60;72.00;;;;;;5527303;26;20728;-62
2024/04/22 07:28:51;;;;;;;3.95;1.92;;;5.80;71.40;;;;;;5527203;26;20243;-65
2024/04/22 07:31:20;;;;;;;2.47;1.92;;;5.90;70.30;;;;;;5527469;25;20228;-64
2024/04/22 07:33:47;;;;;;;3.90;2.30;;;6.10;69.80;;;;;;5527276;26;20224;-61
2024/04/22 07:36:20;;;;;;;2.25;1.75;;;6.20;68.90;;;;;;5527221;26;20710;-65
2024/04/22 07:38:52;;;;;;;1.65;1.50;;;6.40;67.40;;;;;;5527393;26;20818;-65
2024/04/22 07:41:21;;;;;;;3.28;1.90;;;6.60;65.80;;;;;;5528256;25;20228;-65
2024/04/22 07:43:47;;;;;;;2.90;1.85;;;6.60;64.40;;;;;;5526842;26;20709;-65
2024/04/22 07:46:15;;;;;;;2.47;2.27;;;6.50;63.30;;;;;;5526242;26;20265;-66
2024/04/22 07:48:41;;;;;;;2.58;2.08;;;6.50;62.10;;;;;;5526160;26;20556;-64
2024/04/22 07:51:10;;;;;;;3.17;2.43;;;6.40;61.30;;;;;;5526381;25;20259;-64
2024/04/22 07:53:36;;;;;;;2.05;1.77;;;6.40;61.10;;;;;;5526728;26;20215;-64
2024/04/22 07:56:14;;;;;;;4.93;2.40;;;6.50;61.20;;;;;;5534465;25;20235;-64
2024/04/22 07:58:40;;;;;;;3.83;1.80;;;6.60;60.80;;;;;;5554517;25;20224;-65
2024/04/22 08:01:10;;;;;;;4.95;2.45;;;6.80;60.00;;;;;;5563296;25;20253;-65
2024/04/22 08:03:36;;;;;;;2.80;2.60;;;6.80;59.30;;;;;;5563207;25;20260;-65
2024/04/22 08:06:07;;;;;;;3.25;2.08;;;6.90;59.00;;;;;;5563113;25;20578;-65
2024/04/22 08:08:34;;;;;;;4.03;2.53;;;7.00;58.70;;;;;;5563460;25;20219;-64
2024/04/22 08:11:03;;;;;;;2.85;1.73;;;7.10;58.20;;;;;;5536074;25;20264;-65
2024/04/22 08:13:31;;;;;;;2.33;2.13;;;7.10;57.60;;;;;;5526177;26;20256;-65
2024/04/22 08:16:00;;;;;;;2.63;2.08;;;7.10;57.50;;;;;;5528447;25;20275;-65
2024/04/22 08:18:26;;;;;;;6.28;2.60;;;7.10;57.10;;;;;;5526530;26;20284;-63
2024/04/22 08:20:54;;;;;;;2.60;2.00;;;7.20;56.80;;;;;;5527470;25;20205;-64
2024/04/22 08:23:20;;;;;;;3.53;2.35;;;7.40;56.40;;;;;;5527295;25;20581;-64
2024/04/22 08:25:48;;;;;;;3.50;2.30;;;7.50;55.80;;;;;;5532948;25;20730;-65
2024/04/22 08:28:14;;;;;;;2.20;2.00;;;7.60;55.00;;;;;;5560984;25;20466;-65
2024/04/22 08:30:45;;;;;;;2.03;1.70;;;7.80;54.50;;;;;;5556486;25;20789;-64
2024/04/22 08:33:11;;;;;;;2.47;2.20;;;7.80;53.70;;;;;;5555591;25;20279;-64
2024/04/22 08:35:46;;;;;;;3.47;2.20;;;7.80;52.90;;;;;;5527107;26;20324;-66
2024/04/22 08:38:12;;;;;;;6.47;2.10;;;7.70;52.30;;;;;;5527587;26;20449;-63
2024/04/22 08:40:44;;;;;;;3.17;2.53;;;7.80;52.30;;;;;;5528102;26;20280;-64
2024/04/22 08:43:13;;;;;;;4.35;2.42;;;7.80;52.00;;;;;;5529337;25;20806;-64
2024/04/22 08:45:45;;;;;;;3.10;2.10;;;8.00;52.00;;;;;;5526316;26;20213;-64
2024/04/22 08:48:11;;;;;;;3.10;2.03;;;8.20;51.70;;;;;;5526482;26;20243;-64
2024/04/22 08:50:40;;;;;;;2.53;2.00;;;8.40;51.60;;;;;;5541557;25;20305;-64
2024/04/22 08:53:08;;;;;;;3.47;2.70;;;8.60;51.40;;;;;;5554650;25;20284;-65
2024/04/22 08:55:38;;;;;;;2.75;2.28;;;8.80;50.90;;;;;;5525766;26;20284;-64
2024/04/22 08:58:04;;;;;;;4.10;2.27;;;8.90;50.60;;;;;;5541033;25;20238;-65
2024/04/22 09:00:33;;;;;;;4.63;1.83;;;9.00;50.30;;;;;;5537396;25;20462;-65
2024/04/22 09:03:01;;;;;;;4.13;2.23;;;8.90;49.40;;;;;;5530302;26;20265;-64
2024/04/22 09:05:30;;;;;;;3.83;2.20;;;8.90;49.40;;;;;;5529838;26;20514;-65
2024/04/22 09:07:58;;;;;;;2.53;2.20;;;9.00;49.10;;;;;;5530418;26;20571;-65
2024/04/22 09:10:27;;;;;;;2.43;2.20;;;9.10;48.70;;;;;;5530320;26;20625;-65
2024/04/22 09:12:55;;;;;;;3.20;2.20;;;9.20;48.10;;;;;;5514232;25;20858;-64
2024/04/22 09:15:23;;;;;;;3.80;2.03;;;9.30;47.80;;;;;;5545875;25;20462;-66
2024/04/22 09:17:49;;;;;;;6.47;1.90;;;9.30;47.70;;;;;;5545677;25;20473;-63
2024/04/22 09:20:23;;;;;;;2.70;2.00;;;9.30;47.60;;;;;;5529048;26;20446;-63
2024/04/22 09:22:49;;;;;;;4.60;1.93;;;9.40;47.40;;;;;;5528643;26;20381;-65
2024/04/22 09:25:19;;;;;;;2.53;2.10;;;9.40;46.80;;;;;;5529266;26;20490;-64
2024/04/22 09:27:45;;;;;;;3.53;2.30;;;9.60;46.80;;;;;;5529329;26;20478;-65
2024/04/22 09:30:15;;;;;;;2.80;1.90;;;9.70;46.00;;;;;;5528755;26;20521;-64
2024/04/22 09:32:46;;;;;;;2.50;2.00;;;9.60;44.70;;;;;;5529222;26;20507;-64
2024/04/22 09:35:14;;;;;;;4.73;2.40;;;9.50;43.80;;;;;;5529055;26;20521;-64
2024/04/22 09:37:45;;;;;;;4.70;2.27;;;9.40;42.90;;;;;;5529873;26;20447;-64
2024/04/22 09:40:12;;;;;;;1.93;1.70;;;9.40;42.70;;;;;;5530247;26;20474;-64
2024/04/22 09:42:43;;;;;;;1.67;1.53;;;9.40;42.60;;;;;;5529018;26;20470;-65
2024/04/22 09:45:09;;;;;;;3.00;2.10;;;9.50;42.40;;;;;;5528985;26;20505;-64
2024/04/22 09:47:40;;;;;;;2.60;1.97;;;9.50;41.60;;;;;;5528735;26;20452;-65
2024/04/22 09:50:09;;;;;;;1.80;1.70;;;9.50;41.40;;;;;;5528786;26;20447;-63
2024/04/22 09:52:36;;;;;;;2.60;2.13;;;9.40;41.40;;;;;;5535410;25;20529;-66
2024/04/22 09:55:09;;;;;;;4.90;2.17;;;9.40;41.60;;;;;;5565739;25;20516;-64
2024/04/22 09:57:39;;;;;;;2.10;1.90;;;9.40;42.00;;;;;;5565377;25;20522;-65
2024/04/22 10:00:09;;;;;;;2.20;1.80;;;9.50;42.90;;;;;;5564606;25;20879;-63
2024/04/22 10:02:37;;;;;;;5.93;2.30;;;9.70;42.40;;;;;;5564967;25;21007;-65
2024/04/22 10:05:08;;;;;;;1.93;1.73;;;9.70;42.20;;;;;;5565047;25;20494;-64
2024/04/22 10:07:34;;;;;;;2.97;2.20;;;9.70;42.10;;;;;;5564934;25;20520;-65
2024/04/22 10:10:03;;;;;;;1.80;1.70;;;9.70;42.20;;;;;;5564885;25;20562;-65
2024/04/22 10:12:32;;;;;;;8.60;5.70;;;9.80;42.80;;;;;;5564598;25;20269;-64
2024/04/22 10:15:08;;;;;;;3.00;2.47;;;9.90;42.10;;;;;;5564795;25;20449;-64
2024/04/22 10:17:34;;;;;;;2.40;1.83;;;10.10;41.30;;;;;;5564836;25;20583;-65
2024/04/22 10:20:03;;;;;;;4.40;2.07;;;10.40;41.10;;;;;;5564857;25;20446;-64
2024/04/22 10:22:32;;;;;;;2.43;2.23;;;10.40;40.90;;;;;;5563310;25;20490;-66
2024/04/22 10:25:02;;;;;;;4.20;2.30;;;10.60;41.10;;;;;;5563399;25;20447;-65
2024/04/22 10:27:34;;;;;;;2.67;2.47;;;10.70;40.50;;;;;;5564230;25;20596;-64
2024/04/22 10:30:01;;;;;;;4.77;2.20;;;10.90;39.60;;;;;;5564460;25;20466;-64
2024/04/22 10:32:29;;;;;;;2.33;2.13;;;10.80;38.70;;;;;;5564380;25;20995;-64
2024/04/22 10:34:55;;;;;;;3.40;2.40;;;10.50;38.40;;;;;;5564864;25;20544;-63
2024/04/22 10:37:24;;;;;;;4.03;2.57;;;10.20;38.40;;;;;;5566358;25;20544;-64
2024/04/22 10:39:50;;;;;;;2.23;2.00;;;10.00;38.70;;;;;;5566129;25;20280;-65
2024/04/22 10:42:19;;;;;;;4.17;2.20;;;9.80;40.20;;;;;;5565332;25;20481;-62
2024/04/22 10:44:48;;;;;;;3.80;2.70;;;9.80;40.30;;;;;;5565443;25;20792;-65
2024/04/22 10:47:16;;;;;;;2.67;2.20;;;9.80;40.50;;;;;;5565824;25;20943;-64
2024/04/22 10:49:42;;;;;;;2.63;2.10;;;10.00;39.40;;;;;;5564763;25;20457;-64
2024/04/22 10:52:11;;;;;;;4.50;3.00;;;10.30;39.30;;;;;;5564509;25;20772;-63
2024/04/22 10:54:37;;;;;;;7.20;2.40;;;10.50;38.90;;;;;;5564320;25;20229;-64
2024/04/22 10:57:06;;;;;;;3.60;2.70;;;10.40;38.80;;;;;;5564820;25;20913;-64
2024/04/22 10:59:32;;;;;;;2.40;2.20;;;10.60;39.20;;;;;;5564785;25;20265;-65
2024/04/22 11:02:04;;;;;;;3.37;2.20;;;10.70;39.00;;;;;;5564963;25;20579;-65
2024/04/22 11:04:30;;;;;;;3.13;2.17;;;10.70;38.80;;;;;;5564833;25;20563;-64
2024/04/22 11:06:59;;;;;;;2.20;1.90;;;10.40;38.70;;;;;;5564393;25;20517;-63
2024/04/22 11:09:26;;;;;;;3.90;2.90;;;10.20;39.00;;;;;;5564457;25;20485;-64
2024/04/22 11:11:55;;;;;;;2.43;2.23;;;10.10;39.40;;;;;;5564298;25;20516;-64
2024/04/22 11:14:21;;;;;;;3.53;2.10;;;10.00;39.40;;;;;;5564514;25;20444;-63
2024/04/22 11:16:56;;;;;;;2.47;2.27;;;9.90;40.60;;;;;;5565010;25;20462;-64
2024/04/22 11:19:26;;;;;;;2.50;2.13;;;10.00;40.10;;;;;;5564304;25;20584;-64
2024/04/22 11:21:54;;;;;;;2.73;2.07;;;10.20;40.00;;;;;;5563835;25;20478;-66
2024/04/22 11:24:21;;;;;;;2.47;2.27;;;10.40;39.90;;;;;;5564448;25;20510;-64
2024/04/22 11:26:49;;;;;;;5.37;2.77;;;10.60;39.70;;;;;;5563780;25;20454;-64
2024/04/22 11:29:15;;;;;;;4.90;2.47;;;11.10;39.50;;;;;;5564418;25;20573;-64
2024/04/22 11:31:44;;;;;;;3.60;2.50;;;11.50;38.50;;;;;;5564163;25;21022;-65
2024/04/22 11:34:09;;;;;;;2.40;2.20;;;11.50;37.60;;;;;;5562753;25;20498;-65
2024/04/22 11:36:41;;;;;;;5.23;2.90;;;11.60;37.60;;;;;;5563933;25;20848;-63
2024/04/22 11:39:14;;;;;;;3.10;2.50;;;11.70;37.40;;;;;;5564016;25;20204;-63
2024/04/22 11:41:43;;;;;;;2.80;2.10;;;11.70;37.00;;;;;;5564274;25;21004;-64
2024/04/22 11:44:09;;;;;;;2.93;2.20;;;11.80;37.10;;;;;;5563875;25;20859;-63
2024/04/22 11:46:39;;;;;;;3.10;2.77;;;12.20;37.00;;;;;;5564410;25;20439;-65
2024/04/22 11:49:05;;;;;;;4.13;2.70;;;12.60;35.90;;;;;;5563721;25;20845;-64
2024/04/22 11:51:33;;;;;;;2.70;2.50;;;13.20;35.10;;;;;;5564269;25;20566;-65
2024/04/22 11:54:04;;;;;;;2.63;2.40;;;13.50;34.50;;;;;;5564019;25;20550;-65
2024/04/22 11:56:35;;;;;;;3.60;2.23;;;13.70;34.00;;;;;;5564032;25;20446;-64
2024/04/22 11:59:01;;;;;;;3.07;2.57;;;14.10;33.60;;;;;;5563813;25;20596;-64
2024/04/22 12:01:30;;;;;;;2.80;2.27;;;14.20;33.00;;;;;;5564546;25;20465;-64
2024/04/22 12:03:56;;;;;;;2.23;1.87;;;14.20;32.90;;;;;;5564159;25;20458;-64
2024/04/22 12:06:24;;;;;;;2.40;2.13;;;14.30;33.10;;;;;;5563772;25;20562;-64
2024/04/22 12:08:50;;;;;;;5.57;2.50;;;14.80;33.30;;;;;;5563668;25;20552;-65
2024/04/22 12:11:21;;;;;;;5.67;3.10;;;15.50;32.30;;;;;;5563748;25;20474;-66
2024/04/22 12:13:47;;;;;;;2.37;2.10;;;15.90;31.80;;;;;;5563561;25;21034;-63
2024/04/22 12:16:15;;;;;;;3.97;2.40;;;16.40;31.30;;;;;;5563092;25;20453;-64
2024/04/22 12:18:41;;;;;;;3.47;2.60;;;16.50;30.40;;;;;;5563535;25;20304;-63
2024/04/22 12:21:10;;;;;;;4.20;2.47;;;16.40;30.30;;;;;;5564033;25;20482;-65
2024/04/22 12:23:36;;;;;;;2.50;2.30;;;16.30;30.10;;;;;;5564462;25;20317;-65
2024/04/22 12:26:06;;;;;;;2.33;1.90;;;15.70;30.40;;;;;;5564389;25;20457;-64
2024/04/22 12:28:34;;;;;;;4.87;2.50;;;15.10;31.70;;;;;;5563435;25;20257;-65
2024/04/22 12:31:04;;;;;;;2.63;2.40;;;14.60;31.80;;;;;;5563364;25;21031;-63
2024/04/22 12:33:30;;;;;;;2.53;2.33;;;14.40;32.50;;;;;;5563893;25;20453;-64
2024/04/22 12:35:58;;;;;;;3.00;2.70;;;14.50;32.40;;;;;;5567106;25;20527;-64
2024/04/22 12:38:24;;;;;;;6.13;2.37;;;14.40;32.50;;;;;;5568685;25;20460;-64
2024/04/22 12:40:52;;;;;;;2.53;2.10;;;14.20;32.80;;;;;;5570545;25;20555;-64
2024/04/22 12:43:19;;;;;;;2.67;2.07;;;14.20;33.20;;;;;;5567290;25;20339;-64
2024/04/22 12:45:55;;;;;;;3.73;2.57;;;13.80;33.10;;;;;;5567589;25;20497;-66
2024/04/22 12:51:08;;;;;;;4.90;3.00;;;12.50;33.50;;;;;;5570483;25;21042;-64
2024/04/22 12:53:37;;;;;;;4.70;2.47;;;12.10;34.10;;;;;;5567546;25;20493;-64
2024/04/22 12:56:06;;;;;;;4.27;2.20;;;11.80;34.10;;;;;;5567393;25;20441;-63
2024/04/22 12:58:36;;;;;;;2.53;2.33;;;11.50;34.10;;;;;;5567739;25;20584;-65
2024/04/22 13:01:09;;;;;;;4.10;3.00;;;11.20;34.20;;;;;;5567471;25;20544;-65
2024/04/22 13:03:37;;;;;;;5.63;2.80;;;10.80;34.40;;;;;;5567581;25;20504;-66
2024/04/22 13:06:06;;;;;;;4.80;3.40;;;10.60;34.70;;;;;;5566561;25;20573;-64
2024/04/22 13:08:35;;;;;;;3.10;2.40;;;10.60;35.10;;;;;;5566572;25;21045;-63
2024/04/22 13:11:03;;;;;;;3.13;2.50;;;10.70;35.20;;;;;;5566917;25;20491;-65